sensor_id;sensor_type;location;lat;lon;timestamp;P1;durP1;ratioP1;P2;durP2;ratioP2
44746;SDS011;30472;49.490;10.972;2022-08-01T00:02:05;8.90;;;4.77;;
44746;SDS011;30472;49.490;10.972;2022-08-01T00:04:30;4.37;;;3.97;;
44746;SDS011;30472;49.490;10.972;2022-08-01T00:06:56;6.43;;;4.00;;
44746;SDS011;30472;49.490;10.972;2022-08-01T00:09:21;5.27;;;3.90;;
44746;SDS011;30472;49.490;10.972;2022-08-01T00:11:47;4.50;;;3.97;;
44746;SDS011;30472;49.490;10.972;2022-08-01T00:14:12;4.73;;;4.23;;
44746;SDS011;30472;49.490;10.972;2022-08-01T00:16:38;7.23;;;4.23;;
44746;SDS011;30472;49.490;10.972;2022-08-01T00:19:04;5.13;;;4.60;;
44746;SDS011;30472;49.490;10.972;2022-08-01T00:21:29;5.60;;;4.27;;
44746;SDS011;30472;49.490;10.972;2022-08-01T00:23:55;4.70;;;4.27;;
44746;SDS011;30472;49.490;10.972;2022-08-01T00:26:20;8.87;;;4.53;;
44746;SDS011;30472;49.490;10.972;2022-08-01T00:28:46;6.53;;;3.97;;
44746;SDS011;30472;49.490;10.972;2022-08-01T00:31:11;6.27;;;4.00;;
44746;SDS011;30472;49.490;10.972;2022-08-01T00:33:37;5.10;;;3.87;;
44746;SDS011;30472;49.490;10.972;2022-08-01T00:36:03;3.90;;;3.43;;
44746;SDS011;30472;49.490;10.972;2022-08-01T00:38:28;6.73;;;3.80;;
44746;SDS011;30472;49.490;10.972;2022-08-01T00:40:54;6.00;;;4.07;;
44746;SDS011;30472;49.490;10.972;2022-08-01T00:43:19;5.73;;;4.17;;
44746;SDS011;30472;49.490;10.972;2022-08-01T00:45:45;6.47;;;4.13;;
44746;SDS011;30472;49.490;10.972;2022-08-01T00:48:10;5.70;;;3.43;;
44746;SDS011;30472;49.490;10.972;2022-08-01T00:50:36;5.93;;;4.00;;
44746;SDS011;30472;49.490;10.972;2022-08-01T00:53:03;8.70;;;4.10;;
44746;SDS011;30472;49.490;10.972;2022-08-01T00:55:28;4.87;;;4.37;;
44746;SDS011;30472;49.490;10.972;2022-08-01T00:57:55;8.17;;;4.03;;
44746;SDS011;30472;49.490;10.972;2022-08-01T01:00:21;6.47;;;4.40;;
44746;SDS011;30472;49.490;10.972;2022-08-01T01:02:49;5.97;;;3.97;;
44746;SDS011;30472;49.490;10.972;2022-08-01T01:05:14;4.60;;;3.83;;
44746;SDS011;30472;49.490;10.972;2022-08-01T01:07:44;5.40;;;3.67;;
44746;SDS011;30472;49.490;10.972;2022-08-01T01:10:20;5.43;;;3.50;;
44746;SDS011;30472;49.490;10.972;2022-08-01T01:12:59;4.63;;;4.17;;
44746;SDS011;30472;49.490;10.972;2022-08-01T01:15:34;6.50;;;4.03;;
44746;SDS011;30472;49.490;10.972;2022-08-01T01:20:52;3.80;;;3.40;;
44746;SDS011;30472;49.490;10.972;2022-08-01T01:26:04;5.50;;;3.47;;
44746;SDS011;30472;49.490;10.972;2022-08-01T01:31:16;4.33;;;3.77;;
44746;SDS011;30472;49.490;10.972;2022-08-01T01:33:46;4.23;;;3.10;;
44746;SDS011;30472;49.490;10.972;2022-08-01T01:36:13;3.93;;;3.23;;
44746;SDS011;30472;49.490;10.972;2022-08-01T01:38:42;9.70;;;3.20;;
44746;SDS011;30472;49.490;10.972;2022-08-01T01:41:10;3.57;;;3.27;;
44746;SDS011;30472;49.490;10.972;2022-08-01T01:43:37;5.87;;;3.30;;
44746;SDS011;30472;49.490;10.972;2022-08-01T01:46:05;4.30;;;3.23;;
44746;SDS011;30472;49.490;10.972;2022-08-01T01:48:32;4.23;;;3.60;;
44746;SDS011;30472;49.490;10.972;2022-08-01T01:50:59;3.93;;;3.33;;
44746;SDS011;30472;49.490;10.972;2022-08-01T01:53:25;5.47;;;3.33;;
44746;SDS011;30472;49.490;10.972;2022-08-01T01:55:53;3.97;;;3.00;;
44746;SDS011;30472;49.490;10.972;2022-08-01T01:58:21;3.17;;;2.70;;
44746;SDS011;30472;49.490;10.972;2022-08-01T02:00:49;5.03;;;3.00;;
44746;SDS011;30472;49.490;10.972;2022-08-01T02:03:17;10.67;;;2.60;;
44746;SDS011;30472;49.490;10.972;2022-08-01T02:05:44;3.40;;;2.90;;
44746;SDS011;30472;49.490;10.972;2022-08-01T02:08:11;3.17;;;2.80;;
44746;SDS011;30472;49.490;10.972;2022-08-01T02:10:40;4.50;;;2.80;;
44746;SDS011;30472;49.490;10.972;2022-08-01T02:13:06;2.70;;;2.50;;
44746;SDS011;30472;49.490;10.972;2022-08-01T02:15:32;7.20;;;2.83;;
44746;SDS011;30472;49.490;10.972;2022-08-01T02:18:03;3.27;;;2.97;;
44746;SDS011;30472;49.490;10.972;2022-08-01T02:20:30;5.90;;;2.97;;
44746;SDS011;30472;49.490;10.972;2022-08-01T02:23:17;3.70;;;2.40;;
44746;SDS011;30472;49.490;10.972;2022-08-01T02:25:48;2.80;;;2.60;;
44746;SDS011;30472;49.490;10.972;2022-08-01T02:28:25;5.07;;;3.10;;
44746;SDS011;30472;49.490;10.972;2022-08-01T02:31:00;5.23;;;2.90;;
44746;SDS011;30472;49.490;10.972;2022-08-01T02:33:34;3.67;;;3.13;;
44746;SDS011;30472;49.490;10.972;2022-08-01T02:36:03;4.47;;;2.73;;
44746;SDS011;30472;49.490;10.972;2022-08-01T02:38:31;5.73;;;2.70;;
44746;SDS011;30472;49.490;10.972;2022-08-01T02:40:59;3.43;;;2.87;;
44746;SDS011;30472;49.490;10.972;2022-08-01T02:43:30;4.93;;;3.93;;
44746;SDS011;30472;49.490;10.972;2022-08-01T02:46:01;4.40;;;3.00;;
44746;SDS011;30472;49.490;10.972;2022-08-01T02:48:30;5.93;;;2.60;;
44746;SDS011;30472;49.490;10.972;2022-08-01T02:50:59;3.40;;;3.00;;
44746;SDS011;30472;49.490;10.972;2022-08-01T02:53:27;6.23;;;3.73;;
44746;SDS011;30472;49.490;10.972;2022-08-01T02:55:57;4.23;;;3.80;;
44746;SDS011;30472;49.490;10.972;2022-08-01T02:58:24;11.57;;;7.27;;
44746;SDS011;30472;49.490;10.972;2022-08-01T03:00:51;11.40;;;6.50;;
44746;SDS011;30472;49.490;10.972;2022-08-01T03:03:18;5.97;;;4.50;;
44746;SDS011;30472;49.490;10.972;2022-08-01T03:05:45;6.93;;;4.70;;
44746;SDS011;30472;49.490;10.972;2022-08-01T03:08:11;4.77;;;4.03;;
44746;SDS011;30472;49.490;10.972;2022-08-01T03:10:39;6.07;;;4.30;;
44746;SDS011;30472;49.490;10.972;2022-08-01T03:13:06;7.30;;;4.10;;
44746;SDS011;30472;49.490;10.972;2022-08-01T03:15:35;6.93;;;4.40;;
44746;SDS011;30472;49.490;10.972;2022-08-01T03:18:02;6.80;;;3.90;;
44746;SDS011;30472;49.490;10.972;2022-08-01T03:20:33;11.43;;;3.80;;
44746;SDS011;30472;49.490;10.972;2022-08-01T03:22:59;4.83;;;3.80;;
44746;SDS011;30472;49.490;10.972;2022-08-01T03:25:29;5.00;;;3.63;;
44746;SDS011;30472;49.490;10.972;2022-08-01T03:27:57;4.90;;;4.13;;
44746;SDS011;30472;49.490;10.972;2022-08-01T03:30:26;4.03;;;3.63;;
44746;SDS011;30472;49.490;10.972;2022-08-01T03:32:53;4.10;;;3.70;;
44746;SDS011;30472;49.490;10.972;2022-08-01T03:35:19;3.97;;;3.40;;
44746;SDS011;30472;49.490;10.972;2022-08-01T03:37:49;7.40;;;3.70;;
44746;SDS011;30472;49.490;10.972;2022-08-01T03:40:22;4.20;;;3.40;;
44746;SDS011;30472;49.490;10.972;2022-08-01T03:42:52;4.90;;;3.47;;
44746;SDS011;30472;49.490;10.972;2022-08-01T03:45:23;4.10;;;3.43;;
44746;SDS011;30472;49.490;10.972;2022-08-01T03:47:58;6.53;;;3.60;;
44746;SDS011;30472;49.490;10.972;2022-08-01T03:50:26;6.03;;;4.43;;
44746;SDS011;30472;49.490;10.972;2022-08-01T03:52:53;7.07;;;4.67;;
44746;SDS011;30472;49.490;10.972;2022-08-01T03:55:22;7.60;;;5.87;;
44746;SDS011;30472;49.490;10.972;2022-08-01T03:57:49;11.53;;;6.23;;
44746;SDS011;30472;49.490;10.972;2022-08-01T04:00:16;6.67;;;5.03;;
44746;SDS011;30472;49.490;10.972;2022-08-01T04:02:43;7.40;;;5.17;;
44746;SDS011;30472;49.490;10.972;2022-08-01T04:05:13;11.10;;;4.80;;
44746;SDS011;30472;49.490;10.972;2022-08-01T04:07:40;9.03;;;4.90;;
44746;SDS011;30472;49.490;10.972;2022-08-01T04:10:09;5.73;;;4.00;;
44746;SDS011;30472;49.490;10.972;2022-08-01T04:12:36;4.73;;;3.63;;
44746;SDS011;30472;49.490;10.972;2022-08-01T04:15:02;7.00;;;4.70;;
44746;SDS011;30472;49.490;10.972;2022-08-01T04:17:28;4.73;;;4.13;;
44746;SDS011;30472;49.490;10.972;2022-08-01T04:19:53;5.27;;;4.17;;
44746;SDS011;30472;49.490;10.972;2022-08-01T04:22:19;4.53;;;3.93;;
44746;SDS011;30472;49.490;10.972;2022-08-01T04:24:46;4.37;;;3.97;;
44746;SDS011;30472;49.490;10.972;2022-08-01T04:27:14;5.13;;;3.87;;
44746;SDS011;30472;49.490;10.972;2022-08-01T04:29:44;7.40;;;4.00;;
44746;SDS011;30472;49.490;10.972;2022-08-01T04:32:13;7.37;;;5.03;;
44746;SDS011;30472;49.490;10.972;2022-08-01T04:34:40;4.23;;;3.80;;
44746;SDS011;30472;49.490;10.972;2022-08-01T04:37:11;3.60;;;3.30;;
44746;SDS011;30472;49.490;10.972;2022-08-01T04:39:37;3.90;;;3.60;;
44746;SDS011;30472;49.490;10.972;2022-08-01T04:42:06;4.43;;;3.50;;
44746;SDS011;30472;49.490;10.972;2022-08-01T04:44:32;3.93;;;3.50;;
44746;SDS011;30472;49.490;10.972;2022-08-01T04:46:59;5.87;;;3.63;;
44746;SDS011;30472;49.490;10.972;2022-08-01T04:49:25;5.17;;;3.67;;
44746;SDS011;30472;49.490;10.972;2022-08-01T04:51:52;3.40;;;3.10;;
44746;SDS011;30472;49.490;10.972;2022-08-01T04:54:33;3.60;;;2.97;;
44746;SDS011;30472;49.490;10.972;2022-08-01T04:57:02;4.37;;;3.00;;
44746;SDS011;30472;49.490;10.972;2022-08-01T04:59:29;5.70;;;2.80;;
44746;SDS011;30472;49.490;10.972;2022-08-01T05:02:09;4.07;;;2.80;;
44746;SDS011;30472;49.490;10.972;2022-08-01T05:04:36;4.83;;;3.10;;
44746;SDS011;30472;49.490;10.972;2022-08-01T05:07:03;8.97;;;5.53;;
44746;SDS011;30472;49.490;10.972;2022-08-01T05:09:29;2.97;;;2.67;;
44746;SDS011;30472;49.490;10.972;2022-08-01T05:11:56;6.40;;;2.80;;
44746;SDS011;30472;49.490;10.972;2022-08-01T05:14:23;3.90;;;2.50;;
44746;SDS011;30472;49.490;10.972;2022-08-01T05:16:50;5.20;;;2.70;;
44746;SDS011;30472;49.490;10.972;2022-08-01T05:19:16;2.97;;;2.43;;
44746;SDS011;30472;49.490;10.972;2022-08-01T05:21:42;4.20;;;2.40;;
44746;SDS011;30472;49.490;10.972;2022-08-01T05:24:07;3.70;;;2.43;;
44746;SDS011;30472;49.490;10.972;2022-08-01T05:26:33;3.60;;;2.73;;
44746;SDS011;30472;49.490;10.972;2022-08-01T05:28:59;3.17;;;2.87;;
44746;SDS011;30472;49.490;10.972;2022-08-01T05:31:25;4.03;;;3.10;;
44746;SDS011;30472;49.490;10.972;2022-08-01T05:33:50;3.57;;;2.10;;
44746;SDS011;30472;49.490;10.972;2022-08-01T05:36:16;4.90;;;2.43;;
44746;SDS011;30472;49.490;10.972;2022-08-01T05:38:42;2.50;;;2.30;;
44746;SDS011;30472;49.490;10.972;2022-08-01T05:41:07;4.50;;;2.77;;
44746;SDS011;30472;49.490;10.972;2022-08-01T05:43:33;2.87;;;2.20;;
44746;SDS011;30472;49.490;10.972;2022-08-01T05:45:58;5.37;;;2.40;;
44746;SDS011;30472;49.490;10.972;2022-08-01T05:48:24;2.33;;;2.13;;
44746;SDS011;30472;49.490;10.972;2022-08-01T05:50:50;2.30;;;2.10;;
44746;SDS011;30472;49.490;10.972;2022-08-01T05:53:15;5.17;;;2.40;;
44746;SDS011;30472;49.490;10.972;2022-08-01T05:55:41;3.43;;;2.47;;
44746;SDS011;30472;49.490;10.972;2022-08-01T05:58:06;2.33;;;1.80;;
44746;SDS011;30472;49.490;10.972;2022-08-01T06:00:32;2.37;;;1.70;;
44746;SDS011;30472;49.490;10.972;2022-08-01T06:02:57;4.17;;;1.87;;
44746;SDS011;30472;49.490;10.972;2022-08-01T06:05:23;4.83;;;2.77;;
44746;SDS011;30472;49.490;10.972;2022-08-01T06:07:48;2.50;;;2.07;;
44746;SDS011;30472;49.490;10.972;2022-08-01T06:10:14;5.23;;;2.00;;
44746;SDS011;30472;49.490;10.972;2022-08-01T06:12:40;4.27;;;2.10;;
44746;SDS011;30472;49.490;10.972;2022-08-01T06:15:05;7.03;;;2.23;;
44746;SDS011;30472;49.490;10.972;2022-08-01T06:17:32;1.77;;;1.60;;
44746;SDS011;30472;49.490;10.972;2022-08-01T06:19:57;3.37;;;1.80;;
44746;SDS011;30472;49.490;10.972;2022-08-01T06:22:24;2.37;;;1.70;;
44746;SDS011;30472;49.490;10.972;2022-08-01T06:24:49;2.30;;;1.80;;
44746;SDS011;30472;49.490;10.972;2022-08-01T06:27:15;1.77;;;1.65;;
44746;SDS011;30472;49.490;10.972;2022-08-01T06:29:41;2.47;;;1.80;;
44746;SDS011;30472;49.490;10.972;2022-08-01T06:32:08;2.20;;;1.60;;
44746;SDS011;30472;49.490;10.972;2022-08-01T06:34:34;2.27;;;1.87;;
44746;SDS011;30472;49.490;10.972;2022-08-01T06:37:00;2.30;;;1.77;;
44746;SDS011;30472;49.490;10.972;2022-08-01T06:39:25;2.53;;;2.20;;
44746;SDS011;30472;49.490;10.972;2022-08-01T06:41:51;4.40;;;1.75;;
44746;SDS011;30472;49.490;10.972;2022-08-01T06:44:16;2.93;;;1.90;;
44746;SDS011;30472;49.490;10.972;2022-08-01T06:46:42;2.65;;;1.38;;
44746;SDS011;30472;49.490;10.972;2022-08-01T06:49:08;2.95;;;1.73;;
44746;SDS011;30472;49.490;10.972;2022-08-01T06:51:33;5.33;;;1.97;;
44746;SDS011;30472;49.490;10.972;2022-08-01T06:53:59;1.60;;;1.50;;
44746;SDS011;30472;49.490;10.972;2022-08-01T06:56:24;3.13;;;1.93;;
44746;SDS011;30472;49.490;10.972;2022-08-01T06:58:50;3.60;;;1.90;;
44746;SDS011;30472;49.490;10.972;2022-08-01T07:01:16;2.60;;;2.00;;
44746;SDS011;30472;49.490;10.972;2022-08-01T07:03:41;3.97;;;2.10;;
44746;SDS011;30472;49.490;10.972;2022-08-01T07:06:07;2.30;;;1.65;;
44746;SDS011;30472;49.490;10.972;2022-08-01T07:08:33;3.38;;;1.70;;
44746;SDS011;30472;49.490;10.972;2022-08-01T07:10:58;2.35;;;1.90;;
44746;SDS011;30472;49.490;10.972;2022-08-01T07:13:27;2.17;;;1.97;;
44746;SDS011;30472;49.490;10.972;2022-08-01T07:15:55;4.93;;;1.83;;
44746;SDS011;30472;49.490;10.972;2022-08-01T07:18:21;3.97;;;1.73;;
44746;SDS011;30472;49.490;10.972;2022-08-01T07:20:47;5.47;;;1.90;;
44746;SDS011;30472;49.490;10.972;2022-08-01T07:23:13;4.65;;;1.85;;
44746;SDS011;30472;49.490;10.972;2022-08-01T07:25:39;3.08;;;1.65;;
44746;SDS011;30472;49.490;10.972;2022-08-01T07:28:05;2.60;;;1.90;;
44746;SDS011;30472;49.490;10.972;2022-08-01T07:30:31;2.67;;;1.83;;
44746;SDS011;30472;49.490;10.972;2022-08-01T07:32:56;5.35;;;1.60;;
44746;SDS011;30472;49.490;10.972;2022-08-01T07:35:22;2.83;;;1.50;;
44746;SDS011;30472;49.490;10.972;2022-08-01T07:37:47;3.47;;;1.63;;
44746;SDS011;30472;49.490;10.972;2022-08-01T07:40:13;3.42;;;1.40;;
44746;SDS011;30472;49.490;10.972;2022-08-01T07:42:39;1.65;;;1.38;;
44746;SDS011;30472;49.490;10.972;2022-08-01T07:45:08;2.72;;;1.58;;
44746;SDS011;30472;49.490;10.972;2022-08-01T07:47:34;1.85;;;1.48;;
44746;SDS011;30472;49.490;10.972;2022-08-01T07:50:00;3.05;;;1.50;;
44746;SDS011;30472;49.490;10.972;2022-08-01T07:52:26;2.63;;;1.63;;
44746;SDS011;30472;49.490;10.972;2022-08-01T07:54:52;3.20;;;1.70;;
44746;SDS011;30472;49.490;10.972;2022-08-01T07:57:17;2.67;;;1.50;;
44746;SDS011;30472;49.490;10.972;2022-08-01T07:59:43;2.80;;;1.33;;
44746;SDS011;30472;49.490;10.972;2022-08-01T08:02:09;4.72;;;1.75;;
44746;SDS011;30472;49.490;10.972;2022-08-01T08:04:35;1.85;;;1.60;;
44746;SDS011;30472;49.490;10.972;2022-08-01T08:07:00;2.38;;;1.33;;
44746;SDS011;30472;49.490;10.972;2022-08-01T08:09:26;4.05;;;1.63;;
44746;SDS011;30472;49.490;10.972;2022-08-01T08:11:51;1.85;;;1.25;;
44746;SDS011;30472;49.490;10.972;2022-08-01T08:14:17;1.80;;;1.33;;
44746;SDS011;30472;49.490;10.972;2022-08-01T08:16:43;1.50;;;1.25;;
44746;SDS011;30472;49.490;10.972;2022-08-01T08:19:10;1.35;;;1.00;;
44746;SDS011;30472;49.490;10.972;2022-08-01T08:21:36;2.15;;;1.20;;
44746;SDS011;30472;49.490;10.972;2022-08-01T08:24:02;1.90;;;1.20;;
44746;SDS011;30472;49.490;10.972;2022-08-01T08:26:53;1.73;;;1.40;;
44746;SDS011;30472;49.490;10.972;2022-08-01T08:29:21;1.98;;;1.15;;
44746;SDS011;30472;49.490;10.972;2022-08-01T08:31:47;1.30;;;1.20;;
44746;SDS011;30472;49.490;10.972;2022-08-01T08:34:13;2.30;;;1.20;;
44746;SDS011;30472;49.490;10.972;2022-08-01T08:36:39;1.83;;;1.10;;
44746;SDS011;30472;49.490;10.972;2022-08-01T08:39:05;1.98;;;1.20;;
44746;SDS011;30472;49.490;10.972;2022-08-01T08:41:33;1.63;;;1.10;;
44746;SDS011;30472;49.490;10.972;2022-08-01T08:44:03;1.98;;;1.15;;
44746;SDS011;30472;49.490;10.972;2022-08-01T08:46:29;1.23;;;1.13;;
44746;SDS011;30472;49.490;10.972;2022-08-01T08:49:00;2.00;;;1.30;;
44746;SDS011;30472;49.490;10.972;2022-08-01T08:51:30;1.85;;;1.35;;
44746;SDS011;30472;49.490;10.972;2022-08-01T08:53:58;2.60;;;1.13;;
44746;SDS011;30472;49.490;10.972;2022-08-01T08:56:25;2.35;;;1.00;;
44746;SDS011;30472;49.490;10.972;2022-08-01T08:58:54;2.15;;;1.20;;
44746;SDS011;30472;49.490;10.972;2022-08-01T09:01:20;3.15;;;1.15;;
44746;SDS011;30472;49.490;10.972;2022-08-01T09:03:46;2.22;;;1.20;;
44746;SDS011;30472;49.490;10.972;2022-08-01T09:06:12;1.45;;;0.88;;
44746;SDS011;30472;49.490;10.972;2022-08-01T09:08:39;1.73;;;1.00;;
44746;SDS011;30472;49.490;10.972;2022-08-01T09:11:05;2.10;;;1.00;;
44746;SDS011;30472;49.490;10.972;2022-08-01T09:13:30;1.17;;;0.80;;
44746;SDS011;30472;49.490;10.972;2022-08-01T09:15:57;2.95;;;0.95;;
44746;SDS011;30472;49.490;10.972;2022-08-01T09:18:31;2.47;;;1.20;;
44746;SDS011;30472;49.490;10.972;2022-08-01T09:26:09;3.17;;;1.30;;
44746;SDS011;30472;49.490;10.972;2022-08-01T09:28:35;1.10;;;1.00;;
44746;SDS011;30472;49.490;10.972;2022-08-01T09:31:11;2.22;;;1.20;;
44746;SDS011;30472;49.490;10.972;2022-08-01T09:33:52;4.53;;;1.17;;
44746;SDS011;30472;49.490;10.972;2022-08-01T09:36:22;2.05;;;1.20;;
44746;SDS011;30472;49.490;10.972;2022-08-01T09:38:50;3.28;;;0.95;;
44746;SDS011;30472;49.490;10.972;2022-08-01T09:41:16;5.20;;;1.52;;
44746;SDS011;30472;49.490;10.972;2022-08-01T09:43:49;3.22;;;0.85;;
44746;SDS011;30472;49.490;10.972;2022-08-01T09:46:15;3.33;;;0.95;;
44746;SDS011;30472;49.490;10.972;2022-08-01T09:51:27;2.40;;;1.17;;
44746;SDS011;30472;49.490;10.972;2022-08-01T09:54:03;1.45;;;1.15;;
44746;SDS011;30472;49.490;10.972;2022-08-01T09:56:42;2.28;;;1.05;;
44746;SDS011;30472;49.490;10.972;2022-08-01T09:59:08;0.80;;;0.80;;
44746;SDS011;30472;49.490;10.972;2022-08-01T10:01:44;1.10;;;0.82;;
44746;SDS011;30472;49.490;10.972;2022-08-01T10:04:15;1.58;;;0.77;;
44746;SDS011;30472;49.490;10.972;2022-08-01T10:06:45;1.23;;;0.90;;
44746;SDS011;30472;49.490;10.972;2022-08-01T10:09:27;3.38;;;0.85;;
44746;SDS011;30472;49.490;10.972;2022-08-01T10:11:55;1.25;;;0.90;;
44746;SDS011;30472;49.490;10.972;2022-08-01T10:14:22;2.08;;;1.17;;
44746;SDS011;30472;49.490;10.972;2022-08-01T10:16:51;2.58;;;1.20;;
44746;SDS011;30472;49.490;10.972;2022-08-01T10:19:18;1.40;;;1.30;;
44746;SDS011;30472;49.490;10.972;2022-08-01T10:21:48;1.20;;;1.10;;
44746;SDS011;30472;49.490;10.972;2022-08-01T10:24:17;1.13;;;1.02;;
44746;SDS011;30472;49.490;10.972;2022-08-01T10:26:48;1.48;;;1.13;;
44746;SDS011;30472;49.490;10.972;2022-08-01T10:29:17;1.00;;;0.95;;
44746;SDS011;30472;49.490;10.972;2022-08-01T10:31:45;3.58;;;1.20;;
44746;SDS011;30472;49.490;10.972;2022-08-01T10:34:12;2.22;;;1.10;;
44746;SDS011;30472;49.490;10.972;2022-08-01T10:36:41;2.03;;;1.17;;
44746;SDS011;30472;49.490;10.972;2022-08-01T10:39:09;1.55;;;0.90;;
44746;SDS011;30472;49.490;10.972;2022-08-01T10:41:36;1.63;;;1.00;;
44746;SDS011;30472;49.490;10.972;2022-08-01T10:44:03;2.00;;;0.80;;
44746;SDS011;30472;49.490;10.972;2022-08-01T10:46:31;2.05;;;1.17;;
44746;SDS011;30472;49.490;10.972;2022-08-01T10:49:07;0.80;;;0.80;;
44746;SDS011;30472;49.490;10.972;2022-08-01T10:51:40;5.55;;;0.93;;
44746;SDS011;30472;49.490;10.972;2022-08-01T10:54:07;1.25;;;0.82;;
44746;SDS011;30472;49.490;10.972;2022-08-01T10:56:39;1.20;;;0.95;;
44746;SDS011;30472;49.490;10.972;2022-08-01T10:59:08;1.15;;;1.00;;
44746;SDS011;30472;49.490;10.972;2022-08-01T11:01:33;5.50;;;1.30;;
44746;SDS011;30472;49.490;10.972;2022-08-01T11:09:23;2.85;;;1.10;;
44746;SDS011;30472;49.490;10.972;2022-08-01T11:12:02;1.20;;;0.95;;
44746;SDS011;30472;49.490;10.972;2022-08-01T11:17:29;0.95;;;0.80;;
44746;SDS011;30472;49.490;10.972;2022-08-01T11:30:48;1.98;;;1.20;;
44746;SDS011;30472;49.490;10.972;2022-08-01T11:33:16;1.88;;;1.00;;
44746;SDS011;30472;49.490;10.972;2022-08-01T11:38:37;1.65;;;1.20;;
44746;SDS011;30472;49.490;10.972;2022-08-01T11:41:10;1.05;;;0.90;;
44746;SDS011;30472;49.490;10.972;2022-08-01T11:43:55;3.08;;;0.90;;
44746;SDS011;30472;49.490;10.972;2022-08-01T11:49:23;1.25;;;1.02;;
44746;SDS011;30472;49.490;10.972;2022-08-01T11:52:00;2.35;;;1.20;;
44746;SDS011;30472;49.490;10.972;2022-08-01T11:57:13;2.45;;;1.00;;
44746;SDS011;30472;49.490;10.972;2022-08-01T11:59:47;1.70;;;1.00;;
44746;SDS011;30472;49.490;10.972;2022-08-01T12:02:22;2.03;;;1.20;;
44746;SDS011;30472;49.490;10.972;2022-08-01T12:04:59;1.38;;;1.23;;
44746;SDS011;30472;49.490;10.972;2022-08-01T12:07:28;0.98;;;0.88;;
44746;SDS011;30472;49.490;10.972;2022-08-01T12:09:59;3.90;;;1.08;;
44746;SDS011;30472;49.490;10.972;2022-08-01T12:12:25;2.22;;;1.20;;
44746;SDS011;30472;49.490;10.972;2022-08-01T12:14:53;2.53;;;0.98;;
44746;SDS011;30472;49.490;10.972;2022-08-01T12:20:01;1.45;;;0.82;;
44746;SDS011;30472;49.490;10.972;2022-08-01T12:22:28;3.17;;;1.40;;
44746;SDS011;30472;49.490;10.972;2022-08-01T12:24:54;1.30;;;1.20;;
44746;SDS011;30472;49.490;10.972;2022-08-01T12:27:26;2.13;;;0.85;;
44746;SDS011;30472;49.490;10.972;2022-08-01T12:29:53;1.88;;;1.00;;
44746;SDS011;30472;49.490;10.972;2022-08-01T12:32:27;0.70;;;0.70;;
44746;SDS011;30472;49.490;10.972;2022-08-01T12:35:04;2.08;;;1.33;;
44746;SDS011;30472;49.490;10.972;2022-08-01T12:37:36;0.80;;;0.80;;
44746;SDS011;30472;49.490;10.972;2022-08-01T12:40:10;1.77;;;0.73;;
44746;SDS011;30472;49.490;10.972;2022-08-01T12:42:41;2.35;;;0.90;;
44746;SDS011;30472;49.490;10.972;2022-08-01T12:45:08;1.33;;;0.90;;
44746;SDS011;30472;49.490;10.972;2022-08-01T12:47:36;1.48;;;0.80;;
44746;SDS011;30472;49.490;10.972;2022-08-01T12:50:04;3.13;;;1.20;;
44746;SDS011;30472;49.490;10.972;2022-08-01T12:52:32;2.10;;;1.23;;
44746;SDS011;30472;49.490;10.972;2022-08-01T12:57:33;1.55;;;1.45;;
44746;SDS011;30472;49.490;10.972;2022-08-01T13:00:14;1.30;;;1.20;;
44746;SDS011;30472;49.490;10.972;2022-08-01T13:02:40;1.48;;;1.27;;
44746;SDS011;30472;49.490;10.972;2022-08-01T13:05:07;1.38;;;1.27;;
44746;SDS011;30472;49.490;10.972;2022-08-01T13:07:35;2.45;;;1.48;;
44746;SDS011;30472;49.490;10.972;2022-08-01T13:10:02;1.15;;;1.05;;
44746;SDS011;30472;49.490;10.972;2022-08-01T13:12:28;1.65;;;1.15;;
44746;SDS011;30472;49.490;10.972;2022-08-01T13:14:54;4.70;;;1.20;;
44746;SDS011;30472;49.490;10.972;2022-08-01T13:17:29;2.42;;;1.38;;
44746;SDS011;30472;49.490;10.972;2022-08-01T13:20:00;1.15;;;1.00;;
44746;SDS011;30472;49.490;10.972;2022-08-01T13:22:36;2.25;;;1.02;;
44746;SDS011;30472;49.490;10.972;2022-08-01T13:25:09;1.10;;;1.00;;
44746;SDS011;30472;49.490;10.972;2022-08-01T13:27:39;2.65;;;1.20;;
44746;SDS011;30472;49.490;10.972;2022-08-01T13:30:12;1.75;;;1.20;;
44746;SDS011;30472;49.490;10.972;2022-08-01T13:32:39;1.90;;;1.30;;
44746;SDS011;30472;49.490;10.972;2022-08-01T13:35:06;1.63;;;1.20;;
44746;SDS011;30472;49.490;10.972;2022-08-01T13:37:33;3.15;;;1.23;;
44746;SDS011;30472;49.490;10.972;2022-08-01T13:39:59;1.77;;;1.02;;
44746;SDS011;30472;49.490;10.972;2022-08-01T13:42:24;5.03;;;0.80;;
44746;SDS011;30472;49.490;10.972;2022-08-01T13:44:50;1.00;;;0.80;;
44746;SDS011;30472;49.490;10.972;2022-08-01T13:47:15;0.98;;;0.82;;
44746;SDS011;30472;49.490;10.972;2022-08-01T13:49:41;1.77;;;0.75;;
44746;SDS011;30472;49.490;10.972;2022-08-01T13:52:06;0.80;;;0.80;;
44746;SDS011;30472;49.490;10.972;2022-08-01T13:54:32;3.92;;;0.73;;
44746;SDS011;30472;49.490;10.972;2022-08-01T13:56:58;3.47;;;0.90;;
44746;SDS011;30472;49.490;10.972;2022-08-01T13:59:24;1.23;;;0.82;;
44746;SDS011;30472;49.490;10.972;2022-08-01T14:01:49;2.25;;;0.82;;
44746;SDS011;30472;49.490;10.972;2022-08-01T14:04:15;1.05;;;0.80;;
44746;SDS011;30472;49.490;10.972;2022-08-01T14:06:41;2.33;;;0.90;;
44746;SDS011;30472;49.490;10.972;2022-08-01T14:09:06;3.13;;;0.90;;
44746;SDS011;30472;49.490;10.972;2022-08-01T14:11:32;3.58;;;0.80;;
44746;SDS011;30472;49.490;10.972;2022-08-01T14:13:58;2.40;;;0.80;;
44746;SDS011;30472;49.490;10.972;2022-08-01T14:16:24;0.98;;;0.88;;
44746;SDS011;30472;49.490;10.972;2022-08-01T14:18:50;1.20;;;0.80;;
44746;SDS011;30472;49.490;10.972;2022-08-01T14:21:15;2.83;;;0.98;;
44746;SDS011;30472;49.490;10.972;2022-08-01T14:23:41;2.83;;;0.85;;
44746;SDS011;30472;49.490;10.972;2022-08-01T14:26:09;1.15;;;0.98;;
44746;SDS011;30472;49.490;10.972;2022-08-01T14:28:36;2.38;;;1.00;;
44746;SDS011;30472;49.490;10.972;2022-08-01T14:31:02;4.38;;;1.10;;
44746;SDS011;30472;49.490;10.972;2022-08-01T14:33:28;0.75;;;0.70;;
44746;SDS011;30472;49.490;10.972;2022-08-01T14:35:55;0.90;;;0.70;;
44746;SDS011;30472;49.490;10.972;2022-08-01T14:38:21;1.95;;;0.60;;
44746;SDS011;30472;49.490;10.972;2022-08-01T14:40:46;1.17;;;0.60;;
44746;SDS011;30472;49.490;10.972;2022-08-01T14:43:16;0.80;;;0.80;;
44746;SDS011;30472;49.490;10.972;2022-08-01T14:45:42;1.60;;;0.70;;
44746;SDS011;30472;49.490;10.972;2022-08-01T14:48:07;1.15;;;0.70;;
44746;SDS011;30472;49.490;10.972;2022-08-01T14:50:33;0.77;;;0.70;;
44746;SDS011;30472;49.490;10.972;2022-08-01T14:52:58;1.65;;;0.95;;
44746;SDS011;30472;49.490;10.972;2022-08-01T14:55:24;1.75;;;1.10;;
44746;SDS011;30472;49.490;10.972;2022-08-01T14:57:52;2.15;;;0.88;;
44746;SDS011;30472;49.490;10.972;2022-08-01T15:00:18;1.15;;;0.70;;
44746;SDS011;30472;49.490;10.972;2022-08-01T15:02:44;2.55;;;0.80;;
44746;SDS011;30472;49.490;10.972;2022-08-01T15:05:10;0.73;;;0.73;;
44746;SDS011;30472;49.490;10.972;2022-08-01T15:07:36;0.70;;;0.70;;
44746;SDS011;30472;49.490;10.972;2022-08-01T15:10:03;2.55;;;0.77;;
44746;SDS011;30472;49.490;10.972;2022-08-01T15:12:30;1.08;;;0.70;;
44746;SDS011;30472;49.490;10.972;2022-08-01T15:14:56;1.20;;;0.82;;
44746;SDS011;30472;49.490;10.972;2022-08-01T15:17:26;0.63;;;0.60;;
44746;SDS011;30472;49.490;10.972;2022-08-01T15:19:54;1.38;;;1.15;;
44746;SDS011;30472;49.490;10.972;2022-08-01T15:22:22;3.22;;;0.90;;
44746;SDS011;30472;49.490;10.972;2022-08-01T15:24:52;1.65;;;1.08;;
44746;SDS011;30472;49.490;10.972;2022-08-01T15:27:19;1.08;;;0.73;;